createdAt,value
2018-07-11T00:01:22.773Z,1.62
2018-07-11T00:03:53.981Z,1.50
2018-07-11T00:06:24.668Z,1.50
2018-07-11T00:08:54.092Z,1.40
2018-07-11T00:11:23.665Z,1.80
2018-07-11T00:13:53.117Z,1.60
2018-07-11T00:16:22.452Z,1.60
2018-07-11T00:18:51.986Z,1.50
2018-07-11T00:21:21.277Z,1.50
2018-07-11T00:23:50.666Z,1.55
2018-07-11T00:26:20.009Z,1.50
2018-07-11T00:28:49.312Z,1.40
2018-07-11T00:31:18.628Z,1.62
2018-07-11T00:33:47.936Z,1.70
2018-07-11T00:36:17.186Z,1.57
2018-07-11T00:38:47.196Z,1.82
2018-07-11T00:41:16.489Z,1.80
2018-07-11T00:43:45.660Z,1.77
2018-07-11T00:46:17.345Z,1.80
2018-07-11T00:48:46.957Z,1.87
2018-07-11T00:51:16.252Z,1.87
2018-07-11T00:53:45.750Z,1.90
2018-07-11T00:56:15.097Z,1.80
2018-07-11T00:58:48.539Z,1.90
2018-07-11T01:01:17.815Z,1.80
2018-07-11T01:03:54.513Z,1.90
2018-07-11T01:06:23.841Z,1.70
2018-07-11T01:08:55.180Z,2.00
2018-07-11T01:11:24.916Z,1.90
2018-07-11T01:13:54.525Z,2.20
2018-07-11T01:16:24.123Z,2.12
2018-07-11T01:19:01.740Z,2.05
2018-07-11T01:21:31.752Z,1.97
2018-07-11T01:24:01.021Z,2.20
2018-07-11T01:26:31.505Z,1.90
2018-07-11T01:29:00.883Z,2.10
2018-07-11T01:31:30.149Z,1.98
2018-07-11T01:33:59.897Z,1.80
2018-07-11T01:36:29.541Z,2.30
2018-07-11T01:38:59.625Z,2.40
2018-07-11T01:41:28.945Z,2.00
2018-07-11T01:43:58.413Z,2.00
2018-07-11T01:46:36.400Z,1.80
2018-07-11T01:49:05.813Z,2.10
2018-07-11T01:52:46.175Z,2.30
2018-07-11T01:55:15.616Z,2.47
2018-07-11T01:57:44.880Z,2.35
2018-07-11T02:00:14.672Z,2.40
2018-07-11T02:02:43.933Z,2.40
2018-07-11T02:05:13.247Z,2.27
2018-07-11T02:07:42.970Z,2.20
2018-07-11T02:10:12.427Z,2.30
2018-07-11T02:12:42.456Z,2.40
2018-07-11T02:15:12.636Z,2.40
2018-07-11T02:17:42.212Z,2.60
2018-07-11T02:20:14.750Z,2.60
2018-07-11T02:22:44.180Z,2.52
2018-07-11T02:25:15.729Z,2.80
2018-07-11T02:27:45.151Z,2.60
2018-07-11T02:30:14.557Z,2.47
2018-07-11T02:32:44.409Z,2.77
2018-07-11T02:35:13.788Z,3.10
2018-07-11T02:37:43.150Z,2.90
2018-07-11T02:40:12.432Z,3.00
2018-07-11T02:42:41.888Z,3.20
2018-07-11T02:45:11.205Z,3.17
2018-07-11T02:47:42.537Z,2.95
2018-07-11T02:50:12.374Z,2.80
2018-07-11T02:52:42.076Z,3.25
2018-07-11T02:55:11.271Z,3.60
2018-07-11T02:57:40.721Z,3.40
2018-07-11T03:00:10.088Z,3.33
2018-07-11T03:02:39.647Z,3.35
2018-07-11T03:05:08.912Z,3.47
2018-07-11T03:07:38.171Z,3.50
2018-07-11T03:10:07.646Z,3.58
2018-07-11T03:12:37.862Z,3.45
2018-07-11T03:15:07.421Z,3.42
2018-07-11T03:17:37.014Z,3.60
2018-07-11T03:20:06.362Z,4.12
2018-07-11T03:22:35.844Z,3.77
2018-07-11T03:25:05.232Z,3.15
2018-07-11T03:27:34.828Z,3.73
2018-07-11T03:30:04.217Z,3.52
2018-07-11T03:32:33.751Z,3.40
2018-07-11T03:35:03.025Z,3.60
2018-07-11T03:37:32.713Z,3.50
2018-07-11T03:40:02.213Z,3.60
2018-07-11T03:42:31.580Z,3.62
2018-07-11T03:45:02.670Z,3.65
2018-07-11T03:47:32.077Z,3.50
2018-07-11T03:50:01.593Z,3.62
2018-07-11T03:52:31.208Z,3.50
2018-07-11T03:55:00.770Z,3.92
2018-07-11T03:57:30.165Z,3.60
2018-07-11T03:59:59.580Z,4.03
2018-07-11T04:02:28.991Z,3.83
2018-07-11T04:04:58.589Z,3.90
2018-07-11T04:07:27.944Z,3.87
2018-07-11T04:09:57.569Z,4.28
2018-07-11T04:12:26.832Z,3.87
2018-07-11T04:14:56.364Z,4.10
2018-07-11T04:17:25.580Z,4.50
2018-07-11T04:19:55.026Z,4.08
2018-07-11T04:22:24.260Z,4.12
2018-07-11T04:24:53.675Z,3.47
2018-07-11T04:27:22.986Z,3.50
2018-07-11T04:29:52.373Z,3.72
2018-07-11T04:32:21.676Z,3.80
2018-07-11T04:34:50.982Z,3.87
2018-07-11T04:37:20.479Z,3.37
2018-07-11T04:39:49.727Z,3.67
2018-07-11T04:42:19.160Z,3.20
2018-07-11T04:44:48.456Z,4.00
2018-07-11T04:47:17.820Z,4.10
2018-07-11T04:49:47.170Z,4.00
2018-07-11T04:52:16.565Z,4.08
2018-07-11T04:54:45.836Z,3.67
2018-07-11T04:57:15.231Z,4.20
2018-07-11T04:59:44.554Z,3.73
2018-07-11T05:02:13.850Z,4.08
2018-07-11T05:04:43.203Z,3.33
2018-07-11T05:07:12.451Z,3.95
2018-07-11T05:09:41.618Z,3.70
2018-07-11T05:12:10.745Z,4.30
2018-07-11T05:14:39.917Z,4.35
2018-07-11T05:17:09.185Z,4.28
2018-07-11T05:19:38.336Z,4.05
2018-07-11T05:22:07.565Z,3.67
2018-07-11T05:24:36.782Z,4.60
2018-07-11T05:27:06.925Z,3.83
2018-07-11T05:29:36.488Z,3.67
2018-07-11T05:32:06.395Z,4.23
2018-07-11T05:34:35.897Z,3.87
2018-07-11T05:37:06.241Z,4.40
2018-07-11T05:39:35.851Z,4.45
2018-07-11T05:42:06.275Z,3.75
2018-07-11T05:44:35.759Z,4.70
2018-07-11T05:47:07.160Z,3.60
2018-07-11T05:49:36.854Z,3.80
2018-07-11T05:52:06.346Z,3.47
2018-07-11T05:54:36.230Z,4.40
2018-07-11T05:57:06.189Z,3.37
2018-07-11T05:59:35.941Z,3.72
2018-07-11T06:02:06.032Z,4.10
2018-07-11T06:04:36.333Z,4.20
2018-07-11T06:07:06.390Z,3.80
2018-07-11T06:09:36.411Z,4.72
2018-07-11T06:12:06.924Z,4.33
2018-07-11T06:14:38.766Z,4.13
2018-07-11T06:17:13.749Z,4.67
2018-07-11T06:19:45.264Z,4.80
2018-07-11T06:22:18.129Z,4.50
2018-07-11T06:24:55.859Z,4.42
2018-07-11T06:27:55.186Z,4.30
2018-07-11T06:30:26.075Z,4.50
2018-07-11T06:33:05.392Z,4.43
2018-07-11T06:35:41.360Z,4.30
2018-07-11T06:38:11.862Z,4.22
2018-07-11T06:40:49.011Z,4.50
2018-07-11T06:43:18.744Z,4.50
2018-07-11T06:45:58.888Z,4.40
2018-07-11T06:48:33.256Z,4.55
2018-07-11T06:51:07.483Z,4.15
2018-07-11T06:53:42.826Z,4.50
2018-07-11T06:56:14.699Z,4.53
2018-07-11T06:58:44.800Z,4.67
2018-07-11T07:01:17.547Z,4.20
2018-07-11T07:03:53.000Z,4.00
2018-07-11T07:06:26.374Z,3.50
2018-07-11T07:08:57.874Z,4.17
2018-07-11T07:11:28.318Z,3.77
2018-07-11T07:14:00.693Z,3.80
2018-07-11T07:16:34.111Z,4.30
2018-07-11T07:19:04.702Z,4.30
2018-07-11T07:21:34.570Z,3.77
2018-07-11T07:28:59.204Z,3.10
2018-07-11T07:31:31.662Z,3.00
2018-07-11T07:34:01.993Z,3.23
2018-07-11T07:36:34.220Z,3.72
2018-07-11T07:39:05.366Z,3.15
2018-07-11T07:41:37.111Z,3.20
2018-07-11T07:44:12.515Z,2.80
2018-07-11T07:46:55.783Z,2.90
2018-07-11T07:53:29.391Z,2.50
2018-07-11T07:55:58.688Z,3.00
2018-07-11T07:58:27.891Z,2.92
2018-07-11T08:00:57.124Z,2.53
2018-07-11T08:03:26.467Z,2.50
2018-07-11T08:05:55.627Z,2.55
2018-07-11T08:08:24.768Z,2.85
2018-07-11T08:10:53.882Z,2.42
2018-07-11T08:13:23.177Z,2.60
2018-07-11T08:15:52.342Z,2.60
2018-07-11T08:18:21.509Z,2.75
2018-07-11T08:20:50.697Z,2.35
2018-07-11T08:23:31.601Z,2.30
2018-07-11T08:26:11.544Z,2.47
2018-07-11T08:30:56.089Z,2.20
2018-07-11T08:33:36.086Z,2.15
2018-07-11T08:38:17.794Z,1.90
2018-07-11T08:40:59.569Z,2.05
2018-07-11T08:43:39.529Z,1.85
2018-07-11T08:46:53.774Z,2.08
2018-07-11T08:49:33.847Z,2.02
2018-07-11T08:54:17.546Z,1.65
2018-07-11T08:56:58.537Z,1.75
2018-07-11T09:01:46.692Z,1.60
2018-07-11T09:06:38.492Z,1.50
2018-07-11T09:09:20.316Z,1.30
2018-07-11T09:12:08.272Z,1.42
2018-07-11T09:14:48.327Z,1.40
2018-07-11T09:19:31.870Z,1.30
2018-07-11T09:22:42.996Z,1.40
2018-07-11T09:25:12.093Z,1.40
2018-07-11T09:27:41.383Z,1.50
2018-07-11T09:30:10.496Z,1.47
2018-07-11T09:32:39.627Z,1.50
2018-07-11T09:35:08.779Z,1.40
2018-07-11T09:37:37.861Z,1.42
2018-07-11T09:40:07.240Z,1.20
2018-07-11T09:42:36.384Z,1.33
2018-07-11T09:45:05.631Z,1.50
2018-07-11T09:47:34.839Z,1.50
2018-07-11T09:50:03.973Z,1.30
2018-07-11T09:52:33.119Z,1.67
2018-07-11T09:55:02.260Z,1.50
2018-07-11T09:57:31.650Z,1.47
2018-07-11T10:00:00.880Z,1.50
2018-07-11T10:02:30.135Z,1.27
2018-07-11T10:04:59.535Z,1.10
2018-07-11T10:07:29.012Z,1.35
2018-07-11T10:09:58.204Z,1.27
2018-07-11T10:12:27.553Z,1.30
2018-07-11T10:14:56.801Z,1.10
2018-07-11T10:17:26.012Z,1.20
2018-07-11T10:19:55.143Z,1.20
2018-07-11T10:22:24.556Z,1.30
2018-07-11T10:24:53.703Z,1.17
2018-07-11T10:27:22.883Z,1.30
2018-07-11T10:29:51.967Z,1.10
2018-07-11T10:32:21.145Z,1.10
2018-07-11T10:34:50.388Z,1.07
2018-07-11T10:37:19.628Z,1.02
2018-07-11T10:39:48.871Z,1.10
2018-07-11T10:42:19.058Z,1.27
2018-07-11T10:44:53.611Z,1.22
2018-07-11T10:47:22.673Z,1.30
2018-07-11T10:49:52.540Z,1.35
2018-07-11T10:52:21.416Z,1.37
2018-07-11T10:54:50.433Z,1.40
2018-07-11T10:57:19.343Z,1.50
2018-07-11T10:59:48.256Z,1.20
2018-07-11T11:02:21.121Z,1.30
2018-07-11T11:04:50.190Z,1.40
2018-07-11T11:07:19.124Z,1.20
2018-07-11T11:09:48.045Z,1.40
2018-07-11T11:12:16.984Z,1.42
2018-07-11T11:14:45.915Z,1.32
2018-07-11T11:17:14.904Z,1.37
2018-07-11T11:19:43.917Z,1.40
2018-07-11T11:22:12.868Z,1.25
2018-07-11T11:24:41.802Z,1.10
2018-07-11T11:27:10.745Z,1.27
2018-07-11T11:29:39.696Z,1.32
2018-07-11T11:32:08.583Z,1.60
2018-07-11T11:34:37.548Z,1.60
2018-07-11T11:37:06.436Z,1.50
2018-07-11T11:39:35.472Z,1.52
2018-07-11T11:42:04.538Z,1.52
2018-07-11T11:44:33.332Z,1.60
2018-07-11T11:47:02.501Z,1.40
2018-07-11T11:49:31.920Z,1.50
2018-07-11T11:52:00.951Z,1.50
2018-07-11T11:54:30.058Z,1.35
2018-07-11T11:56:59.070Z,1.50
2018-07-11T11:59:28.036Z,1.32
2018-07-11T12:01:57.986Z,1.40
2018-07-11T12:04:26.881Z,1.20
2018-07-11T12:06:55.829Z,1.23
2018-07-11T12:09:24.716Z,1.50
2018-07-11T12:11:53.778Z,1.30
2018-07-11T12:14:22.664Z,1.55
2018-07-11T12:16:51.553Z,1.35
2018-07-11T12:19:20.436Z,1.30
2018-07-11T12:21:49.397Z,1.40
2018-07-11T12:24:18.431Z,1.47
2018-07-11T12:26:47.487Z,1.50
2018-07-11T12:29:16.819Z,1.32
2018-07-11T12:31:45.768Z,1.40
2018-07-11T12:34:14.755Z,1.60
2018-07-11T12:36:43.728Z,1.35
2018-07-11T12:39:12.579Z,1.62
2018-07-11T12:41:41.600Z,1.60
2018-07-11T12:44:10.473Z,1.42
2018-07-11T12:46:39.508Z,1.50
2018-07-11T12:49:08.415Z,1.45
2018-07-11T12:51:37.316Z,1.30
2018-07-11T12:54:06.264Z,1.35
2018-07-11T12:56:35.280Z,1.60
2018-07-11T12:59:04.272Z,1.40
2018-07-11T13:01:33.296Z,1.43
2018-07-11T13:04:02.743Z,1.50
2018-07-11T13:06:31.697Z,1.82
2018-07-11T13:09:00.621Z,1.67
2018-07-11T13:11:30.231Z,1.30
2018-07-11T13:13:59.245Z,1.40
2018-07-11T13:16:28.230Z,1.20
2018-07-11T13:18:57.296Z,1.40
2018-07-11T13:21:26.173Z,1.30
2018-07-11T13:23:55.069Z,1.50
2018-07-11T13:26:23.928Z,1.40
2018-07-11T13:28:53.161Z,1.10
2018-07-11T13:31:22.049Z,1.50
2018-07-11T13:33:50.981Z,1.50
2018-07-11T13:36:19.872Z,1.27
2018-07-11T13:38:48.811Z,1.45
2018-07-11T13:41:17.724Z,1.40
2018-07-11T13:43:46.684Z,1.50
2018-07-11T13:46:15.641Z,1.60
2018-07-11T13:48:44.568Z,1.30
2018-07-11T13:51:13.436Z,1.60
2018-07-11T13:53:42.476Z,1.50
2018-07-11T13:56:11.482Z,1.45
2018-07-11T13:58:41.909Z,1.47
2018-07-11T14:01:10.794Z,1.47
2018-07-11T14:03:39.776Z,1.55
2018-07-11T14:06:08.768Z,1.50
2018-07-11T14:08:37.742Z,1.62
2018-07-11T14:11:06.781Z,1.80
2018-07-11T14:13:35.668Z,1.90
2018-07-11T14:16:04.728Z,2.50
2018-07-11T14:18:33.706Z,2.50
2018-07-11T14:21:02.736Z,2.15
2018-07-11T14:23:42.874Z,2.37
2018-07-11T14:26:14.305Z,2.58
2018-07-11T14:28:53.284Z,2.27
2018-07-11T14:31:27.868Z,2.50
2018-07-11T14:33:56.899Z,2.12
2018-07-11T14:36:25.885Z,2.10
2018-07-11T14:38:54.770Z,2.30
2018-07-11T14:41:24.412Z,2.27
2018-07-11T14:43:53.896Z,1.80
2018-07-11T14:46:24.593Z,2.03
2018-07-11T14:48:53.570Z,2.20
2018-07-11T14:51:22.665Z,2.27
2018-07-11T14:53:52.481Z,2.10
2018-07-11T14:56:21.588Z,2.42
2018-07-11T14:58:52.405Z,2.00
2018-07-11T15:01:21.517Z,2.00
2018-07-11T15:03:50.509Z,2.07
2018-07-11T15:06:19.513Z,2.30
2018-07-11T15:08:48.936Z,2.20
2018-07-11T15:11:17.916Z,2.30
2018-07-11T15:13:46.872Z,2.10
2018-07-11T15:16:15.913Z,3.00
2018-07-11T15:18:44.944Z,1.90
2018-07-11T15:21:13.980Z,1.80
2018-07-11T15:23:43.010Z,1.95
2018-07-11T15:26:11.989Z,2.10
2018-07-11T15:28:41.112Z,1.75
2018-07-11T15:31:09.960Z,2.00
2018-07-11T15:33:38.935Z,2.10
2018-07-11T15:36:07.936Z,2.20
2018-07-11T15:38:36.908Z,2.20
2018-07-11T15:41:05.899Z,3.02
2018-07-11T15:43:34.938Z,2.83
2018-07-11T15:46:03.986Z,2.87
2018-07-11T15:48:33.048Z,3.10
2018-07-11T15:51:02.103Z,2.77
2018-07-11T15:53:31.270Z,2.40
2018-07-11T15:56:00.764Z,2.10
2018-07-11T15:58:32.644Z,2.50
2018-07-11T16:01:05.385Z,2.33
2018-07-11T16:03:37.908Z,1.97
2018-07-11T16:06:08.328Z,2.00
2018-07-11T16:08:37.413Z,2.20
2018-07-11T16:11:06.478Z,2.20
2018-07-11T16:13:35.588Z,2.10
2018-07-11T16:16:04.550Z,1.63
2018-07-11T16:18:33.715Z,1.93
2018-07-11T16:21:02.856Z,1.97
2018-07-11T16:23:35.084Z,1.90
2018-07-11T16:26:04.327Z,1.98
2018-07-11T16:28:33.529Z,2.22
2018-07-11T16:31:02.681Z,2.02
2018-07-11T16:33:31.907Z,1.90
2018-07-11T16:36:01.009Z,2.10
2018-07-11T16:38:30.246Z,2.10
2018-07-11T16:40:59.507Z,2.12
2018-07-11T16:43:28.815Z,2.40
2018-07-11T16:45:58.482Z,2.50
2018-07-11T16:48:28.040Z,2.20
2018-07-11T16:50:58.308Z,2.33
2018-07-11T16:53:27.508Z,2.40
2018-07-11T16:55:56.745Z,2.40
2018-07-11T16:58:30.709Z,2.40
2018-07-11T17:01:01.195Z,2.62
2018-07-11T17:03:30.417Z,2.67
2018-07-11T17:06:08.851Z,2.60
2018-07-11T17:08:40.529Z,2.60
2018-07-11T17:11:16.684Z,2.83
2018-07-11T17:13:55.179Z,2.95
2018-07-11T17:17:00.412Z,2.90
2018-07-11T17:19:37.425Z,3.10
2018-07-11T17:22:07.591Z,2.92
2018-07-11T17:24:48.042Z,3.10
2018-07-11T17:27:20.411Z,2.97
2018-07-11T17:29:51.818Z,2.75
2018-07-11T17:32:21.257Z,3.20
2018-07-11T17:34:50.228Z,2.90
2018-07-11T17:37:21.136Z,3.03
2018-07-11T17:39:58.087Z,3.35
2018-07-11T17:42:28.380Z,3.37
2018-07-11T17:45:09.021Z,3.30
2018-07-11T17:48:16.565Z,3.20
2018-07-11T17:50:45.656Z,3.30
2018-07-11T17:53:22.542Z,3.30
2018-07-11T17:56:00.365Z,3.75
2018-07-11T17:59:02.045Z,3.80
2018-07-11T18:01:42.912Z,3.72
2018-07-11T18:04:28.723Z,3.65
2018-07-11T18:07:07.012Z,2.98
2018-07-11T18:09:58.177Z,3.15
2018-07-11T18:12:34.010Z,3.20
2018-07-11T18:15:14.127Z,4.00
2018-07-11T18:17:56.317Z,4.12
2018-07-11T18:22:41.504Z,3.80
2018-07-11T18:25:19.053Z,3.58
2018-07-11T18:29:55.284Z,4.25
2018-07-11T18:32:33.646Z,3.72
2018-07-11T18:37:14.989Z,3.65
2018-07-11T18:40:03.088Z,3.83
2018-07-11T18:42:37.300Z,4.20
2018-07-11T18:45:15.573Z,4.08
2018-07-11T18:48:15.041Z,3.90
2018-07-11T18:50:50.285Z,4.33
2018-07-11T18:53:30.916Z,4.17
2018-07-11T18:56:11.393Z,4.08
2018-07-11T18:58:50.371Z,3.80
2018-07-11T19:01:47.697Z,3.50
2018-07-11T19:04:29.807Z,3.93
2018-07-11T19:08:10.633Z,3.87
2018-07-11T19:11:23.063Z,3.70
2018-07-11T19:13:54.316Z,4.05
2018-07-11T19:17:34.404Z,3.90
2018-07-11T19:22:17.724Z,3.87
2018-07-11T19:26:59.608Z,3.70
2018-07-11T19:30:37.758Z,3.77
2018-07-11T19:33:31.309Z,3.90
2018-07-11T19:37:10.492Z,4.40
2018-07-11T19:39:47.177Z,3.90
2018-07-11T19:42:21.340Z,3.77
2018-07-11T19:46:03.236Z,3.90
2018-07-11T19:48:45.312Z,4.00
2018-07-11T19:51:35.939Z,4.08
2018-07-11T19:54:16.677Z,3.77
2018-07-11T19:56:47.618Z,3.90
2018-07-11T19:59:16.801Z,3.83
2018-07-11T20:01:46.824Z,3.90
2018-07-11T20:04:16.315Z,3.80
2018-07-11T20:06:45.430Z,3.80
2018-07-11T20:09:14.427Z,3.90
2018-07-11T20:11:43.468Z,3.70
2018-07-11T20:14:12.569Z,3.70
2018-07-11T20:16:41.592Z,3.90
2018-07-11T20:19:10.529Z,3.67
2018-07-11T20:21:39.601Z,3.83
2018-07-11T20:24:08.569Z,3.80
2018-07-11T20:26:37.568Z,3.70
2018-07-11T20:29:06.584Z,3.80
2018-07-11T20:31:35.572Z,4.05
2018-07-11T20:34:04.492Z,3.58
2018-07-11T20:36:33.482Z,3.60
2018-07-11T20:39:02.550Z,3.80
2018-07-11T20:41:31.592Z,3.72
2018-07-11T20:44:00.620Z,3.55
2018-07-11T20:46:29.745Z,3.87
2018-07-11T20:48:58.764Z,3.80
2018-07-11T20:51:27.784Z,3.35
2018-07-11T20:53:56.771Z,3.35
2018-07-11T20:56:25.786Z,3.50
2018-07-11T20:59:05.716Z,3.45
2018-07-11T21:01:45.628Z,3.52
2018-07-11T21:04:25.769Z,3.47
2018-07-11T21:09:09.038Z,3.70
2018-07-11T21:13:48.917Z,3.75
2018-07-11T21:18:31.425Z,3.50
2018-07-11T21:21:00.464Z,3.67
2018-07-11T21:23:29.521Z,4.15
2018-07-11T21:25:58.549Z,3.58
2018-07-11T21:28:27.481Z,4.00
2018-07-11T21:30:56.487Z,4.00
2018-07-11T21:33:25.418Z,4.10
2018-07-11T21:35:54.413Z,4.22
2018-07-11T21:38:23.365Z,3.90
2018-07-11T21:40:52.259Z,4.40
2018-07-11T21:43:21.256Z,3.92
2018-07-11T21:45:50.160Z,3.77
2018-07-11T21:48:19.096Z,3.70
2018-07-11T21:50:48.058Z,3.87
2018-07-11T21:53:16.939Z,3.20
2018-07-11T21:55:45.861Z,3.80
2018-07-11T21:58:14.808Z,3.67
2018-07-11T22:00:43.838Z,3.58
2018-07-11T22:03:12.731Z,3.90
2018-07-11T22:05:41.700Z,3.45
2018-07-11T22:08:10.580Z,3.50
2018-07-11T22:10:40.200Z,3.50
2018-07-11T22:13:09.597Z,3.20
2018-07-11T22:15:38.534Z,3.47
2018-07-11T22:18:18.412Z,3.10
2018-07-11T22:20:46.013Z,3.60
2018-07-11T22:23:13.605Z,3.33
2018-07-11T22:25:41.176Z,3.80
2018-07-11T22:28:08.713Z,3.47
2018-07-11T22:30:36.292Z,3.60
2018-07-11T22:33:03.826Z,3.65
2018-07-11T22:35:31.409Z,3.70
2018-07-11T22:37:58.964Z,3.83
2018-07-11T22:40:26.532Z,3.90
2018-07-11T22:42:54.081Z,3.77
2018-07-11T22:45:21.664Z,3.60
2018-07-11T22:47:49.253Z,3.77
2018-07-11T22:50:16.822Z,3.90
2018-07-11T22:52:44.391Z,3.72
2018-07-11T22:55:11.965Z,3.65
2018-07-11T22:57:39.553Z,3.00
2018-07-11T23:00:07.110Z,3.90
2018-07-11T23:02:34.676Z,3.87
2018-07-11T23:05:02.201Z,3.90
2018-07-11T23:07:29.793Z,3.75
2018-07-11T23:09:57.328Z,3.62
2018-07-11T23:12:24.909Z,3.65
2018-07-11T23:14:52.473Z,4.07
2018-07-11T23:17:20.044Z,3.85
2018-07-11T23:19:47.593Z,3.72
2018-07-11T23:22:15.164Z,4.10
2018-07-11T23:24:42.720Z,4.20
2018-07-11T23:27:10.361Z,4.28
2018-07-11T23:29:37.904Z,4.20
2018-07-11T23:32:05.485Z,4.00
2018-07-11T23:34:33.021Z,4.08
2018-07-11T23:37:00.601Z,3.80
2018-07-11T23:39:28.128Z,4.37
2018-07-11T23:41:55.721Z,4.30
2018-07-11T23:44:23.248Z,4.20
2018-07-11T23:46:50.848Z,4.45
2018-07-11T23:49:18.377Z,4.23
2018-07-11T23:51:45.933Z,4.10
2018-07-11T23:54:13.510Z,4.47
2018-07-11T23:56:41.061Z,4.28
2018-07-11T23:59:08.640Z,4.25
